Time;durP1;ratioP1;P1;durP2;ratioP2;P2;SDS_P1;SDS_P2;PMS_P1;PMS_P2;Temp;Humidity;BMP_temperature;BMP_pressure;BME280_temperature;BME280_humidity;BME280_pressure;Samples;Min_cycle;Max_cycle;Signal;HPM_P1;HPM_P2
2023/07/05 00:00:09;;;;;;;5.00;2.78;;;;;;;22.88;100.00;95868.38;5091121;27;20113;-82
2023/07/05 00:02:34;;;;;;;6.78;3.58;;;;;;;22.77;100.00;95878.13;5105613;27;20076;-83
2023/07/05 00:05:00;;;;;;;8.13;3.28;;;;;;;22.60;100.00;95896.06;5077529;28;20031;-82
2023/07/05 00:07:25;;;;;;;7.80;3.25;;;;;;;22.49;100.00;95900.47;5089981;28;20467;-82
2023/07/05 00:09:51;;;;;;;7.78;3.40;;;;;;;21.72;100.00;95898.22;5101521;28;20543;-83
2023/07/05 00:12:16;;;;;;;8.00;3.80;;;;;;;21.86;100.00;95880.00;5100459;28;20016;-82
2023/07/05 00:14:42;;;;;;;6.60;3.33;;;;;;;22.11;100.00;95875.13;5098562;27;20015;-83
2023/07/05 00:17:07;;;;;;;7.82;3.10;;;;;;;22.24;100.00;95863.34;5122801;27;20625;-83
2023/07/05 00:19:33;;;;;;;7.60;3.53;;;;;;;22.29;100.00;95859.94;5123298;27;20039;-83
2023/07/05 00:21:58;;;;;;;7.13;3.17;;;;;;;22.15;100.00;95856.75;5094082;28;20036;-83
2023/07/05 00:24:28;;;;;;;6.72;3.25;;;;;;;22.01;100.00;95861.56;5099469;28;20027;-82
2023/07/05 00:26:54;;;;;;;5.20;3.10;;;;;;;22.06;100.00;95860.81;5075865;28;20614;-83
2023/07/05 00:29:19;;;;;;;6.40;3.10;;;;;;;22.42;100.00;95850.75;5083049;28;20041;-82
2023/07/05 00:31:45;;;;;;;5.45;2.95;;;;;;;22.07;100.00;95846.41;5101300;27;20385;-83
2023/07/05 00:34:10;;;;;;;8.52;3.13;;;;;;;22.07;100.00;95843.72;5103183;27;20023;-82
2023/07/05 00:36:36;;;;;;;6.55;3.45;;;;;;;22.05;100.00;95838.59;5074974;28;20389;-82
2023/07/05 00:39:02;;;;;;;4.70;2.63;;;;;;;22.42;100.00;95846.22;5075095;28;20477;-82
2023/07/05 00:41:28;;;;;;;5.82;2.78;;;;;;;22.20;100.00;95847.97;5090652;27;20027;-83
2023/07/05 00:43:53;;;;;;;6.78;3.08;;;;;;;22.08;100.00;95840.00;5104662;28;20089;-83
2023/07/05 00:46:29;;;;;;;5.78;3.03;;;;;;;21.97;100.00;95827.50;5071695;28;20038;-82
2023/07/05 00:49:11;;;;;;;6.35;3.75;;;;;;;21.75;100.00;95824.66;5074729;28;20118;-82
2023/07/05 00:51:56;;;;;;;7.00;3.42;;;;;;;21.80;100.00;95833.63;5091046;28;20023;-83
2023/07/05 00:54:27;;;;;;;7.88;3.17;;;;;;;21.85;100.00;95830.22;5092922;28;20496;-83
2023/07/05 00:57:22;;;;;;;7.32;3.45;;;;;;;21.84;100.00;95825.91;5100636;28;20135;-82
2023/07/05 00:59:54;;;;;;;7.57;3.58;;;;;;;21.48;100.00;95824.44;5102811;28;20075;-82
2023/07/05 01:02:20;;;;;;;6.88;3.13;;;;;;;21.53;100.00;95816.47;5090456;28;20062;-83
2023/07/05 01:04:46;;;;;;;6.28;3.28;;;;;;;21.32;100.00;95816.06;5086811;27;20038;-83
2023/07/05 01:07:12;;;;;;;7.75;3.58;;;;;;;21.28;100.00;95804.22;5074936;28;20023;-83
2023/07/05 01:09:37;;;;;;;6.90;3.50;;;;;;;21.45;100.00;95808.84;5100500;28;20065;-83
2023/07/05 01:12:13;;;;;;;7.53;3.17;;;;;;;21.12;100.00;95805.75;5077624;28;20370;-83
2023/07/05 01:14:47;;;;;;;6.25;3.15;;;;;;;21.21;100.00;95806.22;5090703;28;20023;-83
2023/07/05 01:17:32;;;;;;;5.87;2.57;;;;;;;21.23;100.00;95796.09;5086736;28;20061;-83
2023/07/05 01:20:04;;;;;;;6.88;2.88;;;;;;;21.33;100.00;95798.16;5088898;28;20608;-83
2023/07/05 01:22:58;;;;;;;6.65;3.28;;;;;;;21.26;100.00;95794.78;5078303;27;20051;-83
2023/07/05 01:25:42;;;;;;;5.15;3.03;;;;;;;21.17;100.00;95789.81;5082603;28;20053;-84
2023/07/05 01:28:37;;;;;;;5.75;3.03;;;;;;;21.41;100.00;95784.44;5106810;28;20031;-83
2023/07/05 01:31:18;;;;;;;6.68;2.78;;;;;;;21.36;100.00;95785.16;5091448;28;20034;-84
2023/07/05 01:34:09;;;;;;;6.53;3.10;;;;;;;21.25;100.00;95783.28;5089495;28;20489;-83
2023/07/05 01:36:35;;;;;;;6.93;3.20;;;;;;;21.44;100.00;95773.25;5088816;28;20050;-83
2023/07/05 01:39:01;;;;;;;5.60;3.13;;;;;;;21.40;100.00;95777.47;5087063;28;20027;-83
2023/07/05 01:41:26;;;;;;;7.28;3.40;;;;;;;21.17;100.00;95776.47;5087883;28;20737;-84
2023/07/05 01:43:53;;;;;;;5.53;2.70;;;;;;;21.45;100.00;95772.19;5087080;28;20023;-83
2023/07/05 01:46:25;;;;;;;7.78;3.20;;;;;;;21.36;100.00;95766.44;5088408;28;20114;-83
2023/07/05 01:49:08;;;;;;;5.32;2.85;;;;;;;21.32;100.00;95765.22;5069768;28;20034;-83
2023/07/05 01:51:39;;;;;;;7.53;3.17;;;;;;;21.30;100.00;95772.69;5097859;27;20519;-83
2023/07/05 01:54:23;;;;;;;7.00;3.13;;;;;;;21.06;100.00;95773.81;5088432;28;20015;-84
2023/07/05 01:57:18;;;;;;;6.80;2.95;;;;;;;20.97;100.00;95780.59;5074964;28;20118;-83
2023/07/05 01:59:55;;;;;;;5.82;3.28;;;;;;;20.84;100.00;95777.09;5071464;28;20122;-83
2023/07/05 02:02:26;;;;;;;7.10;3.25;;;;;;;20.59;100.00;95774.72;5103106;27;20922;-83
2023/07/05 02:04:52;;;;;;;6.50;3.53;;;;;;;20.73;100.00;95764.59;5078694;28;20503;-83
2023/07/05 02:07:25;;;;;;;6.32;3.15;;;;;;;20.71;100.00;95761.31;5104060;27;20032;-83
2023/07/05 02:09:50;;;;;;;9.32;3.80;;;;;;;20.87;100.00;95760.59;5080189;28;20104;-83
2023/07/05 02:12:16;;;;;;;6.82;3.33;;;;;;;20.95;100.00;95764.75;5076875;28;20436;-83
2023/07/05 02:14:48;;;;;;;6.50;2.63;;;;;;;20.93;100.00;95765.00;5078272;27;20019;-83
2023/07/05 02:17:14;;;;;;;5.22;2.67;;;;;;;20.77;100.00;95764.94;5088115;27;20029;-84
2023/07/05 02:19:39;;;;;;;5.20;2.70;;;;;;;20.79;100.00;95758.31;5095427;28;20028;-82
2023/07/05 02:22:05;;;;;;;5.27;2.83;;;;;;;20.76;100.00;95758.78;5082314;28;20062;-83
2023/07/05 02:24:31;;;;;;;5.37;2.97;;;;;;;20.76;100.00;95768.63;5094005;28;20027;-83
2023/07/05 02:26:59;;;;;;;5.32;2.70;;;;;;;20.73;100.00;95766.44;5094764;28;20031;-83
2023/07/05 02:29:25;;;;;;;4.95;3.10;;;;;;;21.06;100.00;95765.78;5117396;27;20055;-84
2023/07/05 02:31:51;;;;;;;4.78;2.50;;;;;;;20.97;100.00;95760.00;5094290;28;20020;-83
2023/07/05 02:34:17;;;;;;;4.75;2.45;;;;;;;20.93;100.00;95770.34;5083388;27;20049;-83
2023/07/05 02:36:42;;;;;;;6.63;3.03;;;;;;;21.18;100.00;95769.25;5095371;28;20059;-82
2023/07/05 02:39:08;;;;;;;5.33;3.13;;;;;;;21.35;100.00;95762.13;5074439;27;20032;-83
2023/07/05 02:41:34;;;;;;;4.32;2.58;;;;;;;21.36;100.00;95766.44;5087216;28;20031;-83
2023/07/05 02:43:59;;;;;;;4.70;2.85;;;;;;;21.56;100.00;95771.34;5093154;28;20081;-83
2023/07/05 02:46:25;;;;;;;7.70;3.03;;;;;;;21.73;100.00;95763.38;5124123;27;20034;-83
2023/07/05 02:48:57;;;;;;;7.78;3.42;;;;;;;21.74;100.00;95751.59;5082256;28;20066;-82
2023/07/05 02:51:39;;;;;;;6.38;2.58;;;;;;;21.66;100.00;95754.66;5096715;27;20041;-83
2023/07/05 02:54:04;;;;;;;5.20;2.35;;;;;;;21.53;100.00;95745.09;5098909;28;20015;-83
2023/07/05 02:56:30;;;;;;;6.50;2.60;;;;;;;21.67;100.00;95750.94;5106978;27;20072;-82
2023/07/05 02:58:55;;;;;;;6.38;2.88;;;;;;;21.96;100.00;95766.94;5113426;27;20019;-83
2023/07/05 03:01:21;;;;;;;5.85;2.50;;;;;;;22.04;100.00;95777.28;5088430;28;20020;-83
2023/07/05 03:03:46;;;;;;;5.30;2.60;;;;;;;22.14;100.00;95780.13;5077132;28;20035;-84
2023/07/05 03:06:13;;;;;;;4.97;2.63;;;;;;;22.10;100.00;95790.50;5077338;28;20135;-83
2023/07/05 03:08:38;;;;;;;6.65;2.70;;;;;;;22.12;100.00;95800.97;5100857;28;20019;-83
2023/07/05 03:11:04;;;;;;;7.05;2.67;;;;;;;22.10;100.00;95792.38;5092221;28;20034;-82
2023/07/05 03:13:32;;;;;;;6.05;2.92;;;;;;;22.05;100.00;95786.91;5093430;28;20016;-82
2023/07/05 03:15:59;;;;;;;6.00;2.75;;;;;;;21.36;100.00;95795.88;5083910;28;20028;-83
2023/07/05 03:18:28;;;;;;;4.68;2.25;;;;;;;21.16;100.00;95790.06;5101723;28;20054;-82
2023/07/05 03:20:54;;;;;;;5.05;2.30;;;;;;;21.37;100.00;95792.13;5080617;28;20477;-82
2023/07/05 03:23:21;;;;;;;5.47;2.63;;;;;;;21.20;100.00;95791.22;5078789;27;20035;-82
2023/07/05 03:25:59;;;;;;;3.88;2.42;;;;;;;21.64;100.00;95786.22;5085939;27;20105;-82
2023/07/05 03:28:29;;;;;;;5.15;2.60;;;;;;;21.37;100.00;95786.78;5092979;28;20019;-83
2023/07/05 03:31:12;;;;;;;7.28;3.17;;;;;;;21.30;100.00;95786.06;5092607;28;20034;-82
2023/07/05 03:33:53;;;;;;;5.45;2.40;;;;;;;21.46;100.00;95789.06;5074697;28;20020;-83
2023/07/05 03:36:19;;;;;;;5.15;2.28;;;;;;;21.39;100.00;95799.91;5084339;28;20226;-83
2023/07/05 03:38:45;;;;;;;5.90;2.72;;;;;;;21.67;100.00;95809.81;5081447;27;20031;-82
2023/07/05 03:41:29;;;;;;;6.28;2.70;;;;;;;21.44;100.00;95812.59;5078232;28;20027;-83
2023/07/05 03:43:57;;;;;;;7.18;2.80;;;;;;;21.92;100.00;95830.06;5077079;28;20037;-83
2023/07/05 03:46:43;;;;;;;6.28;3.08;;;;;;;22.15;100.00;95850.56;5119492;27;20023;-83
2023/07/05 03:49:08;;;;;;;6.60;3.05;;;;;;;22.02;100.00;95854.34;5084643;27;20019;-83
2023/07/05 03:51:34;;;;;;;6.50;2.70;;;;;;;21.96;100.00;95863.31;5084396;28;20034;-82
2023/07/05 03:54:00;;;;;;;6.00;2.50;;;;;;;22.04;100.00;95862.94;5093023;28;20692;-82
2023/07/05 03:56:27;;;;;;;6.90;4.47;;;;;;;21.69;100.00;95869.25;5072711;28;20020;-83
2023/07/05 03:59:05;;;;;;;7.82;4.30;;;;;;;21.66;100.00;95877.75;5083158;27;20242;-82
2023/07/05 04:01:31;;;;;;;8.30;4.35;;;;;;;21.69;100.00;95876.47;5098289;28;20027;-82
2023/07/05 04:03:59;;;;;;;7.55;3.40;;;;;;;21.71;100.00;95893.13;5092828;28;20501;-81
2023/07/05 04:06:29;;;;;;;5.95;3.40;;;;;;;21.49;100.00;95891.06;5078326;28;20020;-81
2023/07/05 04:08:55;;;;;;;9.27;3.35;;;;;;;21.66;100.00;95891.13;5109797;27;20385;-82
2023/07/05 04:11:23;;;;;;;7.93;3.83;;;;;;;21.22;100.00;95908.63;5100663;28;20023;-82
2023/07/05 04:13:50;;;;;;;6.43;3.50;;;;;;;21.14;100.00;95904.47;5082704;28;20023;-82
2023/07/05 04:16:21;;;;;;;8.93;4.00;;;;;;;21.04;100.00;95901.56;5112441;27;20030;-82
2023/07/05 04:18:50;;;;;;;6.20;3.40;;;;;;;20.93;100.00;95901.34;5084905;27;20380;-82
2023/07/05 04:21:19;;;;;;;8.32;3.63;;;;;;;20.68;100.00;95890.84;5092357;28;20028;-84
2023/07/05 04:24:30;;;;;;;6.40;2.88;;;;;;;20.16;100.00;95889.81;5094086;27;20035;-82
2023/07/05 04:26:56;;;;;;;5.20;2.50;;;;;;;20.40;100.00;95888.81;5075006;28;20023;-82
2023/07/05 04:29:21;;;;;;;7.43;2.42;;;;;;;20.61;100.00;95884.81;5100331;28;20023;-83
2023/07/05 04:31:47;;;;;;;4.70;2.33;;;;;;;20.56;100.00;95871.34;5095978;27;20031;-83
2023/07/05 04:34:12;;;;;;;5.37;2.53;;;;;;;20.73;100.00;95876.81;5100854;27;20031;-83
2023/07/05 04:36:38;;;;;;;4.77;2.50;;;;;;;20.57;100.00;95874.81;5077578;28;20032;-82
2023/07/05 04:39:04;;;;;;;4.90;2.40;;;;;;;20.75;100.00;95880.06;5074242;28;20035;-82
2023/07/05 04:41:29;;;;;;;4.67;2.40;;;;;;;20.65;100.00;95869.13;5078781;27;20050;-83
2023/07/05 04:43:55;;;;;;;7.90;3.10;;;;;;;20.68;100.00;95871.34;5076701;28;20015;-83
2023/07/05 04:46:21;;;;;;;7.60;2.77;;;;;;;20.51;100.00;95871.22;5101400;27;20072;-83
2023/07/05 04:48:47;;;;;;;6.57;2.83;;;;;;;20.94;100.00;95865.53;5098162;27;20027;-83
2023/07/05 04:51:13;;;;;;;6.88;2.53;;;;;;;20.80;100.00;95866.81;5081273;27;20387;-83
2023/07/05 04:53:38;;;;;;;5.40;2.70;;;;;;;20.97;100.00;95869.59;5099713;28;20023;-83
2023/07/05 04:56:04;;;;;;;5.45;2.70;;;;;;;20.94;100.00;95868.22;5083448;28;20034;-83
2023/07/05 04:58:30;;;;;;;10.32;2.65;;;;;;;20.88;100.00;95862.97;5088464;28;20023;-83
2023/07/05 05:01:02;;;;;;;4.97;2.67;;;;;;;21.05;100.00;95860.41;5081793;27;20027;-82
2023/07/05 05:03:29;;;;;;;5.03;1.98;;;;;;;21.02;100.00;95863.53;5094450;27;20020;-83
2023/07/05 05:05:54;;;;;;;5.88;2.40;;;;;;;;;;5076404;28;20088;-82
2023/07/05 05:08:20;;;;;;;5.32;2.05;;;;;;;20.93;100.00;95866.59;5081008;27;20123;-83
2023/07/05 05:10:52;;;;;;;5.43;2.35;;;;;;;21.09;100.00;95853.53;5098780;28;20020;-83
2023/07/05 05:13:18;;;;;;;4.50;2.03;;;;;;;20.80;100.00;95849.97;5090160;28;20060;-83
2023/07/05 05:15:44;;;;;;;4.18;2.28;;;;;;;21.01;100.00;95851.25;5098879;27;20426;-83
2023/07/05 05:18:14;;;;;;;3.47;2.20;;;;;;;21.38;100.00;95838.41;5086763;27;20020;-83
2023/07/05 05:20:40;;;;;;;5.78;2.78;;;;;;;21.47;100.00;95845.03;5081887;28;20061;-82
2023/07/05 05:23:06;;;;;;;6.32;2.50;;;;;;;20.99;100.00;95842.63;5074259;27;20489;-84
2023/07/05 05:25:33;;;;;;;5.38;2.83;;;;;;;21.54;100.00;95839.53;5115035;27;20038;-83
2023/07/05 05:27:59;;;;;;;5.65;2.30;;;;;;;21.42;100.00;95842.22;5073146;28;20044;-82
2023/07/05 05:30:38;;;;;;;4.13;1.77;;;;;;;21.55;100.00;95841.16;5083699;28;20039;-84
2023/07/05 05:33:04;;;;;;;5.20;2.58;;;;;;;21.45;100.00;95835.59;5097047;28;20023;-82
2023/07/05 05:35:31;;;;;;;5.25;2.13;;;;;;;21.11;100.00;95840.75;5103844;28;20037;-82
2023/07/05 05:37:57;;;;;;;4.00;2.17;;;;;;;21.08;100.00;95830.53;5108162;28;20023;-84
2023/07/05 05:40:22;;;;;;;7.72;2.15;;;;;;;21.27;100.00;95837.34;5084882;28;20036;-83
2023/07/05 05:42:48;;;;;;;3.65;1.70;;;;;;;21.33;100.00;95832.94;5077226;28;20024;-82
2023/07/05 05:45:14;;;;;;;3.50;1.55;;;;;;;21.27;100.00;95829.34;5087442;28;20106;-84
2023/07/05 05:47:39;;;;;;;3.47;1.50;;;;;;;21.37;100.00;95832.25;5089006;28;20127;-83
2023/07/05 05:50:06;;;;;;;3.00;1.38;;;;;;;21.44;100.00;95828.63;5104225;28;20038;-83
2023/07/05 05:52:35;;;;;;;3.92;1.60;;;;;;;21.68;100.00;95819.47;5091573;28;20129;-84
2023/07/05 05:55:03;;;;;;;3.75;1.55;;;;;;;21.56;100.00;95819.53;5109049;28;20027;-84
2023/07/05 05:57:28;;;;;;;4.25;1.75;;;;;;;21.69;100.00;95821.06;5112981;28;20098;-84
2023/07/05 06:00:00;;;;;;;3.05;1.25;;;;;;;21.87;100.00;95828.13;5078918;28;20028;-84
2023/07/05 06:02:25;;;;;;;3.20;1.52;;;;;;;22.17;100.00;95824.38;5097474;28;20080;-83
2023/07/05 06:04:51;;;;;;;3.30;1.35;;;;;;;22.18;100.00;95823.31;5077273;28;20027;-83
2023/07/05 06:07:17;;;;;;;2.75;1.30;;;;;;;22.33;100.00;95823.56;5079539;28;20031;-83
2023/07/05 06:09:45;;;;;;;2.00;1.08;;;;;;;22.27;100.00;95828.03;5087845;28;20027;-83
2023/07/05 06:12:23;;;;;;;2.40;1.00;;;;;;;22.44;100.00;95821.88;5083206;28;20041;-84
2023/07/05 06:14:49;;;;;;;3.97;1.45;;;;;;;22.01;100.00;95823.28;5088273;28;20028;-83
2023/07/05 06:17:14;;;;;;;1.73;1.17;;;;;;;21.84;100.00;95828.59;5085984;28;20027;-84
2023/07/05 06:19:40;;;;;;;4.38;1.25;;;;;;;21.96;100.00;95826.66;5129482;28;20035;-84
2023/07/05 06:22:12;;;;;;;3.58;1.17;;;;;;;22.16;100.00;95828.09;5091454;28;20027;-84
2023/07/05 06:24:37;;;;;;;3.53;1.27;;;;;;;22.16;100.00;95826.22;5086805;28;20051;-85
2023/07/05 06:27:03;;;;;;;1.95;1.20;;;;;;;22.12;100.00;95827.75;5086151;28;20077;-84
2023/07/05 06:29:29;;;;;;;4.22;1.33;;;;;;;22.11;100.00;95831.47;5109594;28;20035;-85
2023/07/05 06:31:54;;;;;;;2.47;1.30;;;;;;;22.29;100.00;95836.63;5113526;28;20020;-84
2023/07/05 06:34:20;;;;;;;3.28;1.63;;;;;;;22.48;100.00;95826.50;5073094;28;20461;-84
2023/07/05 06:36:46;;;;;;;3.60;1.60;;;;;;;22.43;100.00;95842.47;5100215;28;20024;-83
2023/07/05 06:39:14;;;;;;;2.70;1.08;;;;;;;22.73;100.00;95842.13;5110636;27;20028;-84
2023/07/05 06:41:42;;;;;;;3.45;1.38;;;;;;;22.78;100.00;95838.75;5093938;27;20023;-85
2023/07/05 06:44:08;;;;;;;2.20;1.10;;;;;;;23.25;100.00;95828.41;5102945;27;20031;-84
2023/07/05 06:46:33;;;;;;;5.40;1.35;;;;;;;22.92;100.00;95841.88;5122948;27;20031;-85
2023/07/05 06:48:59;;;;;;;1.58;0.90;;;;;;;22.58;100.00;95839.25;5079742;28;20115;-85
2023/07/05 06:51:25;;;;;;;3.42;1.20;;;;;;;22.54;100.00;95843.47;5086932;27;20026;-85
2023/07/05 06:53:50;;;;;;;2.45;1.10;;;;;;;22.63;100.00;95846.53;5086932;27;20052;-85
2023/07/05 06:56:17;;;;;;;3.50;1.20;;;;;;;22.58;100.00;95849.97;5096387;27;20042;-85
2023/07/05 06:58:42;;;;;;;2.45;1.40;;;;;;;22.92;100.00;95857.97;5108267;27;20028;-85
2023/07/05 07:01:08;;;;;;;3.15;1.30;;;;;;;22.99;100.00;95861.31;5093360;27;20027;-85
2023/07/05 07:03:35;;;;;;;4.63;2.00;;;;;;;23.06;100.00;95859.28;5082471;28;20104;-85
2023/07/05 07:06:04;;;;;;;3.60;1.80;;;;;;;22.85;100.00;95855.47;5077082;28;20054;-86
2023/07/05 07:08:33;;;;;;;3.17;1.52;;;;;;;22.62;100.00;95863.69;5102307;27;20039;-84
2023/07/05 07:11:03;;;;;;;6.25;1.85;;;;;;;22.88;100.00;95857.66;5098091;28;20979;-85
2023/07/05 07:13:30;;;;;;;2.25;1.50;;;;;;;22.76;100.00;95860.41;5095310;28;20523;-84
2023/07/05 07:16:14;;;;;;;2.63;1.65;;;;;;;22.98;100.00;95857.03;5104156;28;20473;-85
2023/07/05 07:18:49;;;;;;;3.08;1.58;;;;;;;23.83;100.00;95849.50;5100190;28;20692;-85
2023/07/05 07:21:16;;;;;;;3.88;1.70;;;;;;;23.79;100.00;95853.78;5092020;27;20053;-85
2023/07/05 07:23:47;;;;;;;3.17;1.80;;;;;;;23.88;100.00;95863.81;5098611;27;20076;-84
2023/07/05 07:26:18;;;;;;;6.03;1.85;;;;;;;24.11;100.00;95859.19;5096653;27;20076;-86
2023/07/05 07:28:50;;;;;;;3.67;2.00;;;;;;;24.03;100.00;95859.66;5107839;27;20113;-88
2023/07/05 07:31:21;;;;;;;3.70;1.70;;;;;;;24.05;100.00;95852.16;5081160;28;20024;-86
2023/07/05 07:33:47;;;;;;;3.22;1.63;;;;;;;24.92;100.00;95857.22;5085655;27;20026;-86
2023/07/05 07:36:19;;;;;;;5.22;1.70;;;;;;;24.98;100.00;95851.84;5134942;27;20047;-86
2023/07/05 07:38:45;;;;;;;4.72;2.00;;;;;;;24.86;100.00;95858.25;5123058;28;20086;-86
2023/07/05 07:41:15;;;;;;;5.45;1.88;;;;;;;24.92;100.00;95861.78;5103629;28;20633;-86
2023/07/05 07:43:41;;;;;;;3.40;2.05;;;;;;;25.52;100.00;95849.75;5083465;28;20031;-86
2023/07/05 07:46:12;;;;;;;5.03;2.50;;;;;;;24.84;100.00;95856.88;5089058;28;20405;-85
2023/07/05 07:48:40;;;;;;;4.50;1.90;;;;;;;25.48;100.00;95864.00;5085116;27;20020;-85
2023/07/05 07:51:06;;;;;;;4.95;2.10;;;;;;;25.33;100.00;95867.44;5096060;28;20122;-86
2023/07/05 07:53:31;;;;;;;5.57;1.70;;;;;;;25.44;100.00;95885.25;5099034;28;21893;-85
2023/07/05 07:55:58;;;;;;;1.95;1.23;;;;;;;23.97;100.00;95889.13;5095023;27;20072;-86
2023/07/05 07:58:24;;;;;;;2.35;1.10;;;;;;;23.18;100.00;95912.81;5115124;27;20035;-87
2023/07/05 08:00:50;;;;;;;4.40;1.10;;;;;;;22.95;100.00;95936.09;5083949;28;20084;-86
2023/07/05 08:03:15;;;;;;;15.82;3.17;;;;;;;22.26;100.00;95936.22;5106221;27;20111;-82
2023/07/05 08:05:41;;;;;;;8.80;2.35;;;;;;;21.28;100.00;95964.69;5081194;28;20028;-84
2023/07/05 08:08:12;;;;;;;10.18;2.80;;;;;;;21.83;100.00;95963.47;5107736;27;20628;-83
2023/07/05 08:10:38;;;;;;;5.55;1.67;;;;;;;20.85;100.00;95973.84;5083195;28;20031;-84
2023/07/05 08:13:04;;;;;;;4.43;1.75;;;;;;;21.39;100.00;95961.25;5093310;28;20816;-85
2023/07/05 08:15:29;;;;;;;3.30;1.45;;;;;;;20.85;100.00;95971.16;5118278;27;20035;-86
2023/07/05 08:17:56;;;;;;;7.57;2.38;;;;;;;20.77;100.00;95968.84;5100510;27;20027;-84
2023/07/05 08:20:25;;;;;;;6.82;1.63;;;;;;;20.92;100.00;95977.25;5102097;28;20020;-83
2023/07/05 08:22:51;;;;;;;5.05;1.65;;;;;;;20.96;100.00;95966.91;5086733;28;20034;-84
2023/07/05 08:25:16;;;;;;;4.28;1.50;;;;;;;20.94;100.00;95967.13;5101867;27;20031;-84
2023/07/05 08:27:44;;;;;;;3.85;1.55;;;;;;;21.23;100.00;95963.75;5080580;27;20033;-84
2023/07/05 08:30:09;;;;;;;4.78;1.75;;;;;;;21.36;100.00;95967.06;5093559;28;20134;-84
2023/07/05 08:32:39;;;;;;;5.60;1.67;;;;;;;21.66;100.00;95963.38;5096981;28;20461;-83
2023/07/05 08:35:05;;;;;;;3.80;1.80;;;;;;;21.39;100.00;95963.91;5079716;28;20035;-83
2023/07/05 08:37:31;;;;;;;4.47;1.60;;;;;;;21.62;100.00;95970.25;5100085;27;20031;-84
2023/07/05 08:39:56;;;;;;;4.40;1.80;;;;;;;21.75;100.00;95975.34;5113769;27;20023;-83
2023/07/05 08:42:42;;;;;;;2.42;1.40;;;;;;;22.08;100.00;95963.19;5077412;28;20500;-84
2023/07/05 08:45:11;;;;;;;4.97;2.05;;;;;;;23.08;100.00;95961.75;5094981;27;20027;-84
2023/07/05 08:47:48;;;;;;;2.90;1.55;;;;;;;22.95;100.00;95962.91;5104677;27;20059;-84
2023/07/05 08:50:22;;;;;;;4.20;1.75;;;;;;;23.15;100.00;95962.41;5090782;28;20038;-83
2023/07/05 08:52:50;;;;;;;4.43;1.83;;;;;;;23.24;100.00;95973.56;5094313;28;20032;-84
2023/07/05 08:55:25;;;;;;;3.35;1.83;;;;;;;22.76;100.00;95981.06;5097832;28;20167;-85
2023/07/05 08:57:55;;;;;;;3.85;1.60;;;;;;;23.05;100.00;95972.97;5102744;28;20026;-85
2023/07/05 09:00:45;;;;;;;5.38;1.92;;;;;;;22.73;100.00;95976.16;5095426;27;20066;-84
2023/07/05 09:03:13;;;;;;;7.53;1.98;;;;;;;22.75;100.00;95983.97;5101107;27;20031;-85
2023/07/05 09:06:01;;;;;;;5.00;2.20;;;;;;;22.97;100.00;95989.47;5081328;27;20534;-84
2023/07/05 09:08:52;;;;;;;3.20;1.80;;;;;;;23.02;100.00;95984.19;5105118;27;20031;-84
2023/07/05 09:11:42;;;;;;;3.70;1.75;;;;;;;22.44;100.00;95999.53;5096742;28;20028;-84
2023/07/05 09:14:21;;;;;;;2.83;1.65;;;;;;;22.19;100.00;96001.72;5087314;27;20019;-84
2023/07/05 09:16:59;;;;;;;3.50;1.52;;;;;;;22.38;100.00;96018.41;5100014;28;20041;-85
2023/07/05 09:19:58;;;;;;;6.38;2.20;;;;;;;22.30;100.00;96009.72;5084561;27;20024;-84
2023/07/05 09:22:30;;;;;;;5.82;2.28;;;;;;;21.96;100.00;96013.25;5079668;28;20043;-84
2023/07/05 09:24:56;;;;;;;5.05;2.33;;;;;;;22.39;100.00;96020.03;5122059;27;20110;-85
2023/07/05 09:27:29;;;;;;;11.05;2.95;;;;;;;21.56;100.00;96009.50;5103570;27;20035;-85
2023/07/05 09:30:06;;;;;;;4.80;2.17;;;;;;;21.99;100.00;95992.19;5080446;28;20031;-85
2023/07/05 09:32:40;;;;;;;5.70;2.75;;;;;;;22.66;100.00;96015.72;5089391;27;20105;-86
2023/07/05 09:35:15;;;;;;;5.07;2.72;;;;;;;21.64;100.00;96029.72;5096081;28;20076;-84
2023/07/05 09:37:51;;;;;;;8.15;2.53;;;;;;;21.91;100.00;96037.25;5104899;28;20019;-86
2023/07/05 09:40:25;;;;;;;4.05;2.40;;;;;;;21.70;100.00;96036.03;5091357;28;20060;-86
2023/07/05 09:43:01;;;;;;;6.25;2.10;;;;;;;21.67;100.00;96042.66;5088276;28;20019;-85
2023/07/05 09:45:27;;;;;;;5.55;2.40;;;;;;;21.28;100.00;96030.72;5100201;28;20031;-84
2023/07/05 09:48:02;;;;;;;3.38;1.85;;;;;;;21.45;100.00;96030.88;5099971;28;20106;-84
2023/07/05 09:50:29;;;;;;;6.03;2.65;;;;;;;21.72;100.00;96033.91;5092005;28;20031;-85
2023/07/05 09:53:31;;;;;;;11.93;2.58;;;;;;;21.47;100.00;96058.25;5085938;28;20701;-84
2023/07/05 09:56:18;;;;;;;6.00;2.88;;;;;;;21.07;100.00;96058.84;5085502;28;20442;-84
2023/07/05 09:58:44;;;;;;;5.50;2.63;;;;;;;21.19;100.00;96057.84;5092086;28;20047;-84
2023/07/05 10:01:23;;;;;;;6.07;2.70;;;;;;;21.57;100.00;96055.78;5089369;28;20858;-84
2023/07/05 10:03:57;;;;;;;7.35;3.72;;;;;;;21.16;100.00;96054.81;5104065;28;20670;-85
2023/07/05 10:06:25;;;;;;;8.00;4.43;;;;;;;21.44;100.00;96064.84;5101498;28;20443;-85
2023/07/05 10:08:53;;;;;;;8.88;3.78;;;;;;;22.67;100.00;96059.41;5119972;28;20034;-84
2023/07/05 10:11:33;;;;;;;8.82;5.13;;;;;;;23.97;100.00;96046.78;5086306;28;20099;-86
2023/07/05 10:14:02;;;;;;;5.78;3.50;;;;;;;24.77;100.00;96041.84;5095285;28;20030;-86
2023/07/05 10:16:42;;;;;;;4.70;2.90;;;;;;;25.24;100.00;96042.03;5104963;28;20059;-85
2023/07/05 10:19:19;;;;;;;5.20;2.92;;;;;;;25.08;100.00;96046.47;5081461;27;20024;-87
2023/07/05 10:22:07;;;;;;;5.43;2.97;;;;;;;25.12;100.00;96044.09;5080639;28;20482;-88
2023/07/05 10:24:41;;;;;;;6.03;3.08;;;;;;;26.31;100.00;96041.91;5088069;28;20028;-88
2023/07/05 10:27:28;;;;;;;6.00;3.20;;;;;;;26.28;100.00;96048.63;5081017;28;20071;-87
2023/07/05 10:30:02;;;;;;;6.85;3.20;;;;;;;26.17;100.00;96054.25;5103761;28;20024;-86
2023/07/05 10:32:31;;;;;;;5.05;2.92;;;;;;;27.04;100.00;96049.97;5089877;27;20224;-86
2023/07/05 10:34:57;;;;;;;4.75;2.80;;;;;;;26.40;100.00;96058.41;5118919;27;20027;-85
2023/07/05 10:37:28;;;;;;;6.05;3.35;;;;;;;26.46;100.00;96055.47;5093203;27;20038;-86
2023/07/05 10:39:53;;;;;;;5.53;3.30;;;;;;;26.72;100.00;96060.94;5123223;27;20062;-87
2023/07/05 10:42:19;;;;;;;6.53;2.72;;;;;;;26.09;100.00;96050.19;5077721;28;20050;-88
2023/07/05 10:44:49;;;;;;;5.10;2.80;;;;;;;26.53;100.00;96063.34;5083803;28;20023;-87
2023/07/05 10:47:14;;;;;;;5.82;2.88;;;;;;;27.00;100.00;96062.38;5085440;28;20037;-87
2023/07/05 10:49:43;;;;;;;6.40;3.13;;;;;;;26.01;100.00;96064.16;5096872;28;20457;-87
2023/07/05 10:52:15;;;;;;;6.38;3.03;;;;;;;25.73;100.00;96062.59;5081427;28;20051;-87
2023/07/05 10:54:47;;;;;;;5.13;2.92;;;;;;;25.22;100.00;96063.03;5098621;27;20076;-86
2023/07/05 10:57:33;;;;;;;4.73;2.77;;;;;;;26.06;100.00;96054.22;5094624;27;20055;-86
2023/07/05 11:00:11;;;;;;;6.18;3.00;;;;;;;26.83;100.00;96045.59;5082765;28;20031;-87
2023/07/05 11:02:46;;;;;;;5.32;2.78;;;;;;;27.95;100.00;96059.97;5079315;28;20115;-86
2023/07/05 11:05:20;;;;;;;5.72;3.40;;;;;;;28.05;100.00;96042.09;5085054;27;20058;-86
2023/07/05 11:07:49;;;;;;;5.50;3.40;;;;;;;26.98;100.00;96051.84;5088785;28;20028;-87
2023/07/05 11:10:15;;;;;;;5.50;3.05;;;;;;;27.58;100.00;96038.66;5100783;28;20034;-85
2023/07/05 11:12:41;;;;;;;7.68;3.53;;;;;;;27.87;100.00;96044.31;5097299;27;20020;-85
2023/07/05 11:15:13;;;;;;;5.57;3.22;;;;;;;27.61;100.00;96040.81;5082774;27;20634;-85
2023/07/05 11:17:42;;;;;;;6.53;2.93;;;;;;;27.99;100.00;96046.69;5095728;27;20027;-83
2023/07/05 11:20:47;;;;;;;5.45;3.33;;;;;;;27.58;100.00;96049.44;5111485;27;20042;-84
2023/07/05 11:23:44;;;;;;;6.38;3.38;;;;;;;27.65;100.00;96043.78;5008046;28;20033;-86
2023/07/05 11:26:30;;;;;;;6.43;3.60;;;;;;;27.46;100.00;96048.91;5095203;27;20027;-86
2023/07/05 11:28:56;;;;;;;6.03;3.53;;;;;;;26.25;100.00;96046.47;5077815;28;20076;-85
2023/07/05 11:31:27;;;;;;;7.10;3.50;;;;;;;26.02;100.00;96053.13;5074899;28;20543;-85
2023/07/05 11:34:21;;;;;;;6.35;3.80;;;;;;;27.56;100.00;96045.41;5092380;28;20023;-84
2023/07/05 11:36:48;;;;;;;4.30;2.65;;;;;;;28.24;100.00;96034.22;5087563;28;20062;-84
2023/07/05 11:39:32;;;;;;;9.75;5.40;;;;;;;29.11;98.35;96026.47;5103189;28;20023;-83
2023/07/05 11:42:19;;;;;;;5.57;3.20;;;;;;;28.61;87.68;96020.25;5099580;28;20601;-82